createdAt,value
2023-03-04T00:02:30.117Z,45.50
2023-03-04T00:05:03.587Z,35.70
2023-03-04T00:07:35.482Z,51.00
2023-03-04T00:10:08.369Z,40.20
2023-03-04T00:12:40.122Z,44.10
2023-03-04T00:15:12.880Z,39.40
2023-03-04T00:20:15.652Z,39.20
2023-03-04T00:25:18.097Z,38.50
2023-03-04T00:27:50.049Z,26.30
2023-03-04T00:30:22.362Z,42.30
2023-03-04T00:35:24.936Z,37.80
2023-03-04T00:37:58.599Z,36.20
2023-03-04T00:40:30.355Z,40.70
2023-03-04T00:43:03.443Z,41.80
2023-03-04T00:45:35.208Z,40.10
2023-03-04T00:48:07.320Z,25.40
2023-03-04T00:50:39.380Z,47.10
2023-03-04T00:53:11.589Z,37.40
2023-03-04T00:55:43.328Z,45.50
2023-03-04T00:58:15.113Z,31.00
2023-03-04T01:00:46.859Z,40.10
2023-03-04T01:03:18.616Z,38.60
2023-03-04T01:05:50.347Z,38.10
2023-03-04T01:08:25.120Z,41.70
2023-03-04T01:10:58.549Z,35.80
2023-03-04T01:13:30.279Z,35.50
2023-03-04T01:16:03.419Z,39.10
2023-03-04T01:18:35.263Z,39.90
2023-03-04T01:21:08.383Z,39.00
2023-03-04T01:26:10.713Z,39.70
2023-03-04T01:28:42.505Z,35.40
2023-03-04T01:31:14.445Z,37.50
2023-03-04T01:33:46.522Z,42.20
2023-03-04T01:36:18.374Z,40.10
2023-03-04T01:38:50.268Z,28.60
2023-03-04T01:41:26.927Z,32.10
2023-03-04T01:44:02.441Z,32.50
2023-03-04T01:46:34.649Z,33.50
2023-03-04T01:49:07.234Z,35.90
2023-03-04T01:51:39.006Z,30.80
2023-03-04T01:54:11.523Z,35.30
2023-03-04T01:56:45.621Z,36.90
2023-03-04T01:59:19.941Z,35.70
2023-03-04T02:01:54.439Z,36.90
2023-03-04T02:04:29.279Z,31.90
2023-03-04T02:07:03.436Z,31.80
2023-03-04T02:09:36.035Z,33.00
2023-03-04T02:12:08.277Z,28.30
2023-03-04T02:14:41.124Z,46.40
2023-03-04T02:17:14.851Z,39.20
2023-03-04T02:19:57.783Z,30.20
2023-03-04T02:22:29.688Z,34.30
2023-03-04T02:25:07.402Z,31.30
2023-03-04T02:27:39.230Z,37.90
2023-03-04T02:30:14.531Z,32.30
2023-03-04T02:32:46.327Z,26.50
2023-03-04T02:35:19.234Z,36.50
2023-03-04T02:37:53.551Z,39.40
2023-03-04T02:40:31.852Z,32.60
2023-03-04T02:43:04.502Z,36.40
2023-03-04T02:45:46.217Z,30.40
2023-03-04T02:48:21.622Z,33.90
2023-03-04T02:50:55.025Z,34.80
2023-03-04T02:53:26.934Z,37.10
2023-03-04T02:55:59.016Z,32.70
2023-03-04T02:58:31.236Z,27.30
2023-03-04T03:01:03.099Z,27.50
2023-03-04T03:03:35.268Z,29.70
2023-03-04T03:06:07.886Z,35.80
2023-03-04T03:08:39.686Z,36.60
2023-03-04T03:11:11.576Z,28.40
2023-03-04T03:13:44.645Z,33.20
2023-03-04T03:16:17.047Z,33.20
2023-03-04T03:18:48.991Z,33.90
2023-03-04T03:21:21.316Z,28.50
2023-03-04T03:23:53.058Z,34.60
2023-03-04T03:26:24.986Z,33.90
2023-03-04T03:28:56.757Z,31.60
2023-03-04T03:31:28.674Z,28.70
2023-03-04T03:34:00.764Z,31.40
2023-03-04T03:36:32.784Z,29.10
2023-03-04T03:39:04.563Z,28.00
2023-03-04T03:41:36.562Z,28.50
2023-03-04T03:44:08.401Z,25.80
2023-03-04T03:46:40.180Z,26.70
2023-03-04T03:49:11.935Z,29.40
2023-03-04T03:51:43.617Z,26.60
2023-03-04T03:54:15.661Z,22.50
2023-03-04T03:56:47.426Z,27.50
2023-03-04T03:59:19.518Z,33.40
2023-03-04T04:01:51.611Z,34.00
2023-03-04T04:04:23.452Z,27.50
2023-03-04T04:06:56.036Z,21.60
2023-03-04T04:11:59.493Z,33.30
2023-03-04T04:14:31.258Z,23.40
2023-03-04T04:17:03.033Z,30.10
2023-03-04T04:19:34.756Z,24.50
2023-03-04T04:22:06.596Z,29.60
2023-03-04T04:24:38.702Z,29.10
2023-03-04T04:27:10.634Z,34.00
2023-03-04T04:29:42.929Z,23.70
2023-03-04T04:32:14.630Z,31.40
2023-03-04T04:34:46.485Z,33.30
2023-03-04T04:37:18.190Z,35.10
2023-03-04T04:39:51.808Z,19.40
2023-03-04T04:42:24.306Z,28.20
2023-03-04T04:44:57.244Z,26.30
2023-03-04T04:47:29.014Z,26.90
2023-03-04T04:50:00.741Z,30.30
2023-03-04T04:52:32.525Z,19.20
2023-03-04T04:55:04.762Z,29.80
2023-03-04T04:57:38.067Z,29.70
2023-03-04T05:00:11.932Z,25.70
2023-03-04T05:02:43.821Z,28.90
2023-03-04T05:05:15.790Z,24.60
2023-03-04T05:07:47.511Z,37.00
2023-03-04T05:10:19.090Z,26.00
2023-03-04T05:12:50.989Z,21.30
2023-03-04T05:15:22.731Z,36.60
2023-03-04T05:17:54.463Z,25.00
2023-03-04T05:20:27.125Z,20.90
2023-03-04T05:22:59.207Z,24.80
2023-03-04T05:25:31.027Z,28.20
2023-03-04T05:28:04.830Z,19.10
2023-03-04T05:30:36.716Z,23.00
2023-03-04T05:33:09.407Z,26.50
2023-03-04T05:38:14.172Z,27.70
2023-03-04T05:40:46.982Z,31.20
2023-03-04T05:43:19.261Z,29.20
2023-03-04T05:45:51.589Z,26.90
2023-03-04T05:48:24.053Z,24.60
2023-03-04T05:51:00.837Z,28.90
2023-03-04T05:53:33.040Z,27.90
2023-03-04T05:56:10.159Z,30.50
2023-03-04T05:58:42.017Z,31.60
2023-03-04T06:01:14.474Z,15.90
2023-03-04T06:03:48.528Z,36.30
2023-03-04T06:06:20.381Z,27.70
2023-03-04T06:08:52.307Z,26.90
2023-03-04T06:11:24.651Z,25.60
2023-03-04T06:13:56.749Z,29.60
2023-03-04T06:16:28.477Z,31.50
2023-03-04T06:19:00.301Z,20.00
2023-03-04T06:21:32.134Z,22.50
2023-03-04T06:24:03.910Z,29.40
2023-03-04T06:26:35.723Z,29.90
2023-03-04T06:29:08.307Z,21.90
2023-03-04T06:34:13.328Z,27.80
2023-03-04T06:36:46.187Z,22.80
2023-03-04T06:39:20.021Z,31.20
2023-03-04T06:41:52.959Z,24.20
2023-03-04T06:44:26.883Z,33.20
2023-03-04T06:47:01.431Z,28.40
2023-03-04T06:49:33.228Z,29.50
2023-03-04T06:52:05.254Z,17.70
2023-03-04T06:54:36.874Z,27.20
2023-03-04T06:57:09.035Z,30.80
2023-03-04T06:59:41.354Z,30.80
2023-03-04T07:02:14.526Z,20.90
2023-03-04T07:04:46.509Z,26.40
2023-03-04T07:07:18.351Z,20.70
2023-03-04T07:09:50.141Z,31.30
2023-03-04T07:12:23.099Z,22.30
2023-03-04T07:14:55.152Z,26.30
2023-03-04T07:17:27.063Z,30.60
2023-03-04T07:19:58.928Z,20.70
2023-03-04T07:22:30.860Z,22.10
2023-03-04T07:25:03.201Z,22.00
2023-03-04T07:27:35.232Z,20.70
2023-03-04T07:30:11.592Z,23.00
2023-03-04T07:32:43.476Z,26.20
2023-03-04T07:35:15.260Z,22.90
2023-03-04T07:37:48.275Z,30.80
2023-03-04T07:40:21.825Z,25.40
2023-03-04T07:42:55.825Z,20.50
2023-03-04T07:45:29.117Z,23.90
2023-03-04T07:48:02.733Z,29.50
2023-03-04T07:50:36.646Z,24.80
2023-03-04T07:53:08.578Z,26.80
2023-03-04T07:55:40.945Z,21.80
2023-03-04T07:58:13.198Z,19.70
2023-03-04T08:00:45.186Z,18.10
2023-03-04T08:03:16.911Z,17.10
2023-03-04T08:05:49.050Z,14.50
2023-03-04T08:08:20.817Z,25.00
2023-03-04T08:10:52.498Z,30.00
2023-03-04T08:13:25.915Z,24.90
2023-03-04T08:15:59.392Z,24.40
2023-03-04T08:18:31.278Z,22.50
2023-03-04T08:21:02.970Z,24.10
2023-03-04T08:23:35.019Z,27.60
2023-03-04T08:26:12.602Z,21.70
2023-03-04T08:28:45.684Z,26.90
2023-03-04T08:31:19.037Z,27.90
2023-03-04T08:33:51.229Z,21.90
2023-03-04T08:36:23.129Z,23.20
2023-03-04T08:38:55.021Z,22.10
2023-03-04T08:41:29.468Z,18.80
2023-03-04T08:44:02.564Z,27.90
2023-03-04T08:46:35.050Z,26.50
2023-03-04T08:49:23.967Z,25.00
2023-03-04T08:52:03.518Z,18.50
2023-03-04T08:54:44.322Z,31.80
2023-03-04T08:57:17.595Z,20.40
2023-03-04T08:59:57.813Z,24.90
2023-03-04T09:02:31.200Z,24.00
2023-03-04T09:05:03.583Z,23.30
2023-03-04T09:07:36.876Z,20.70
2023-03-04T09:10:15.193Z,30.10
2023-03-04T09:12:48.787Z,19.40
2023-03-04T09:15:28.879Z,22.30
2023-03-04T09:18:09.915Z,16.50
2023-03-04T09:21:11.495Z,20.50
2023-03-04T09:23:52.101Z,18.40
2023-03-04T09:26:27.136Z,13.80
2023-03-04T09:29:00.114Z,25.20
2023-03-04T09:31:32.925Z,18.20
2023-03-04T09:36:35.488Z,19.30
2023-03-04T09:39:08.357Z,20.60
2023-03-04T09:41:44.247Z,15.10
2023-03-04T09:44:26.832Z,16.70
2023-03-04T09:47:02.489Z,17.00
2023-03-04T09:49:35.626Z,12.60
2023-03-04T09:52:19.635Z,12.10
2023-03-04T09:55:13.925Z,11.80
2023-03-04T09:57:54.856Z,9.70
2023-03-04T10:00:34.138Z,11.50
2023-03-04T10:03:19.882Z,14.70
2023-03-04T10:06:02.008Z,12.50
2023-03-04T10:08:46.670Z,11.60
2023-03-04T10:11:23.996Z,12.70
2023-03-04T10:14:04.450Z,12.00
2023-03-04T10:16:42.753Z,10.90
2023-03-04T10:19:29.788Z,11.30
2023-03-04T10:22:20.848Z,9.20
2023-03-04T10:25:00.308Z,11.10
2023-03-04T10:27:33.777Z,6.90
2023-03-04T10:30:12.360Z,9.80
2023-03-04T10:32:48.852Z,9.80
2023-03-04T10:35:24.049Z,11.00
2023-03-04T10:37:55.968Z,13.40
2023-03-04T10:40:28.501Z,10.10
2023-03-04T10:43:07.123Z,18.20
2023-03-04T10:45:42.479Z,10.80
2023-03-04T10:48:23.741Z,8.20
2023-03-04T10:50:56.062Z,16.30
2023-03-04T10:53:37.781Z,13.50
2023-03-04T10:56:34.907Z,11.50
2023-03-04T10:59:41.446Z,15.00
2023-03-04T11:02:28.620Z,12.10
2023-03-04T11:05:17.553Z,16.00
2023-03-04T11:07:56.343Z,15.70
2023-03-04T11:10:40.419Z,7.80
2023-03-04T11:13:17.782Z,7.50
2023-03-04T11:15:57.525Z,5.30
2023-03-04T11:18:41.473Z,10.90
2023-03-04T11:21:19.868Z,10.90
2023-03-04T11:23:58.300Z,9.80
2023-03-04T11:26:36.350Z,10.30
2023-03-04T11:29:15.017Z,11.50
2023-03-04T11:31:53.037Z,9.50
2023-03-04T11:34:35.097Z,11.70
2023-03-04T11:37:13.138Z,16.60
2023-03-04T11:39:51.829Z,12.60
2023-03-04T11:42:32.790Z,14.30
2023-03-04T11:45:04.900Z,9.50
2023-03-04T11:47:57.928Z,10.30
2023-03-04T11:50:45.558Z,9.70
2023-03-04T11:53:34.696Z,10.60
2023-03-04T11:56:22.740Z,10.90
2023-03-04T11:59:11.094Z,6.60
2023-03-04T12:01:51.323Z,13.20
2023-03-04T12:04:49.670Z,5.80
2023-03-04T12:07:43.966Z,7.90
2023-03-04T12:10:26.878Z,15.70
2023-03-04T12:15:51.260Z,9.80
2023-03-04T12:21:13.071Z,9.80
2023-03-04T12:24:03.566Z,14.00
2023-03-04T12:26:40.788Z,10.90
2023-03-04T12:29:19.098Z,9.40
2023-03-04T12:31:58.198Z,13.10
2023-03-04T12:35:02.299Z,16.00
2023-03-04T12:37:59.470Z,9.20
2023-03-04T12:40:43.462Z,10.40
2023-03-04T12:43:41.333Z,16.70
2023-03-04T12:46:27.683Z,12.20
2023-03-04T12:49:17.474Z,9.00
2023-03-04T12:51:56.467Z,11.00
2023-03-04T12:54:36.064Z,14.50
2023-03-04T12:57:12.084Z,12.30
2023-03-04T12:59:51.512Z,11.70
2023-03-04T13:02:43.104Z,6.30
2023-03-04T13:05:25.633Z,7.00
2023-03-04T13:08:10.096Z,4.90
2023-03-04T13:10:42.198Z,4.20
2023-03-04T13:13:37.214Z,7.00
2023-03-04T13:16:32.484Z,7.30
2023-03-04T13:19:05.292Z,9.40
2023-03-04T13:21:49.143Z,11.20
2023-03-04T13:24:47.626Z,7.30
2023-03-04T13:27:50.544Z,6.10
2023-03-04T13:30:44.756Z,7.90
2023-03-04T13:33:46.257Z,19.90
2023-03-04T13:36:33.299Z,6.10
2023-03-04T13:39:24.413Z,10.50
2023-03-04T13:41:57.852Z,4.70
2023-03-04T13:45:00.502Z,9.30
2023-03-04T13:47:45.615Z,12.60
2023-03-04T13:50:35.341Z,6.50
2023-03-04T13:53:34.024Z,9.90
2023-03-04T13:56:36.619Z,8.10
2023-03-04T13:59:27.181Z,7.30
2023-03-04T14:02:02.096Z,10.90
2023-03-04T14:04:37.339Z,8.50
2023-03-04T14:07:25.010Z,14.80
2023-03-04T14:10:04.912Z,11.40
2023-03-04T14:12:42.423Z,6.00
2023-03-04T14:15:25.453Z,9.50
2023-03-04T14:20:32.577Z,7.50
2023-03-04T14:23:23.296Z,8.50
2023-03-04T14:26:04.471Z,12.50
2023-03-04T14:28:46.314Z,5.10
2023-03-04T14:31:21.907Z,8.50
2023-03-04T14:34:00.144Z,11.60
2023-03-04T14:36:34.804Z,7.00
2023-03-04T14:39:08.352Z,4.40
2023-03-04T14:41:44.262Z,6.30
2023-03-04T14:44:24.700Z,5.80
2023-03-04T14:47:07.820Z,6.80
2023-03-04T14:49:41.215Z,6.00
2023-03-04T14:52:34.326Z,8.00
2023-03-04T14:55:22.118Z,6.30
2023-03-04T14:57:59.117Z,6.80
2023-03-04T15:00:34.259Z,9.20
2023-03-04T15:06:31.069Z,7.20
2023-03-04T15:09:06.986Z,8.50
2023-03-04T15:11:49.314Z,4.90
2023-03-04T15:14:46.219Z,12.30
2023-03-04T15:17:32.895Z,8.50
2023-03-04T15:20:20.801Z,9.80
2023-03-04T15:23:08.396Z,12.30
2023-03-04T15:25:41.479Z,9.20
2023-03-04T15:28:20.823Z,10.40
2023-03-04T15:30:54.679Z,7.40
2023-03-04T15:33:26.996Z,8.30
2023-03-04T15:36:01.896Z,10.10
2023-03-04T15:38:34.991Z,13.90
2023-03-04T15:41:10.024Z,8.20
2023-03-04T15:43:41.921Z,14.00
2023-03-04T15:46:16.889Z,9.10
2023-03-04T15:48:50.951Z,8.10
2023-03-04T15:51:25.535Z,11.50
2023-03-04T15:54:00.197Z,14.00
2023-03-04T15:56:34.940Z,10.40
2023-03-04T15:59:12.855Z,8.30
2023-03-04T16:01:45.362Z,10.70
2023-03-04T16:06:51.509Z,13.20
2023-03-04T16:09:24.920Z,23.20
2023-03-04T16:12:01.817Z,16.30
2023-03-04T16:14:34.067Z,12.10
2023-03-04T16:17:08.416Z,8.00
2023-03-04T16:22:17.577Z,10.40
2023-03-04T16:24:50.187Z,11.80
2023-03-04T16:27:24.487Z,11.90
2023-03-04T16:29:57.306Z,11.20
2023-03-04T16:32:30.885Z,11.10
2023-03-04T16:35:04.509Z,9.00
2023-03-04T16:37:36.697Z,9.60
2023-03-04T16:40:14.024Z,12.30
2023-03-04T16:42:46.349Z,12.50
2023-03-04T16:47:52.206Z,13.80
2023-03-04T16:50:27.396Z,11.40
2023-03-04T16:52:59.976Z,10.00
2023-03-04T16:55:33.516Z,9.40
2023-03-04T16:58:07.402Z,11.10
2023-03-04T17:00:40.687Z,12.10
2023-03-04T17:03:14.982Z,9.40
2023-03-04T17:05:47.712Z,16.30
2023-03-04T17:08:19.827Z,25.10
2023-03-04T17:10:53.448Z,22.50
2023-03-04T17:13:25.864Z,18.60
2023-03-04T17:16:03.357Z,19.00
2023-03-04T17:18:35.678Z,17.50
2023-03-04T17:21:11.871Z,19.40
2023-03-04T17:23:43.850Z,15.10
2023-03-04T17:26:16.648Z,13.50
2023-03-04T17:28:48.592Z,17.50
2023-03-04T17:31:22.463Z,13.70
2023-03-04T17:33:54.456Z,16.60
2023-03-04T17:36:26.622Z,15.90
2023-03-04T17:38:58.580Z,15.40
2023-03-04T17:41:30.988Z,13.40
2023-03-04T17:44:03.831Z,20.10
2023-03-04T17:46:36.086Z,19.80
2023-03-04T17:49:08.594Z,14.90
2023-03-04T17:51:42.073Z,18.60
2023-03-04T17:54:14.525Z,19.00
2023-03-04T17:56:46.817Z,15.10
2023-03-04T17:59:19.853Z,15.50
2023-03-04T18:01:54.204Z,18.50
2023-03-04T18:04:26.387Z,10.50
2023-03-04T18:06:58.621Z,13.60
2023-03-04T18:09:30.567Z,16.90
2023-03-04T18:12:02.320Z,21.90
2023-03-04T18:14:34.474Z,20.90
2023-03-04T18:17:06.392Z,28.40
2023-03-04T18:19:38.212Z,22.40
2023-03-04T18:22:09.905Z,20.60
2023-03-04T18:24:43.590Z,20.30
2023-03-04T18:27:15.442Z,19.10
2023-03-04T18:29:47.142Z,18.50
2023-03-04T18:32:19.540Z,10.90
2023-03-04T18:34:51.664Z,14.70
2023-03-04T18:37:23.961Z,21.00
2023-03-04T18:39:56.380Z,14.70
2023-03-04T18:42:28.731Z,21.30
2023-03-04T18:45:01.634Z,18.30
2023-03-04T18:47:37.187Z,18.00
2023-03-04T18:50:11.197Z,16.40
2023-03-04T18:52:43.124Z,20.10
2023-03-04T18:55:15.778Z,21.80
2023-03-04T19:00:21.609Z,23.70
2023-03-04T19:02:57.678Z,18.60
2023-03-04T19:05:32.524Z,21.80
2023-03-04T19:08:06.674Z,26.60
2023-03-04T19:10:38.620Z,26.70
2023-03-04T19:15:20.051Z,24.90
2023-03-04T19:17:52.357Z,24.70
2023-03-04T19:20:24.530Z,24.20
2023-03-04T19:22:56.518Z,33.90
2023-03-04T19:26:15.271Z,32.10
2023-03-04T19:28:48.202Z,36.60
2023-03-04T19:31:20.127Z,40.20
2023-03-04T19:33:53.057Z,34.40
2023-03-04T19:36:25.934Z,35.40
2023-03-04T19:39:07.360Z,37.10
2023-03-04T19:41:45.730Z,34.60
2023-03-04T19:44:18.252Z,37.50
2023-03-04T19:46:52.209Z,33.30
2023-03-04T19:49:24.443Z,37.40
2023-03-04T19:51:56.390Z,35.50
2023-03-04T19:54:28.978Z,41.60
2023-03-04T19:57:02.467Z,33.30
2023-03-04T19:59:37.468Z,26.00
2023-03-04T20:02:20.781Z,42.30
2023-03-04T20:07:23.232Z,43.10
2023-03-04T20:09:57.050Z,36.80
2023-03-04T20:12:31.264Z,33.20
2023-03-04T20:15:03.428Z,39.30
2023-03-04T20:17:35.337Z,29.70
2023-03-04T20:20:10.759Z,32.40
2023-03-04T20:22:42.916Z,31.80
2023-03-04T20:25:15.032Z,29.90
2023-03-04T20:27:47.545Z,29.50
2023-03-04T20:30:20.580Z,30.10
2023-03-04T20:32:52.420Z,29.00
2023-03-04T20:35:24.601Z,34.10
2023-03-04T20:37:56.925Z,29.60
2023-03-04T20:40:29.215Z,28.30
2023-03-04T20:43:02.458Z,29.40
2023-03-04T20:45:37.394Z,31.40
2023-03-04T20:48:10.000Z,29.90
2023-03-04T20:50:42.614Z,37.30
2023-03-04T20:55:46.358Z,47.80
2023-03-04T20:58:18.992Z,36.60
2023-03-04T21:00:55.589Z,58.50
2023-03-04T21:03:27.558Z,57.40
2023-03-04T21:06:03.157Z,64.00
2023-03-04T21:08:35.253Z,59.50
2023-03-04T21:11:07.438Z,62.70
2023-03-04T21:13:42.376Z,41.70
2023-03-04T21:16:19.157Z,65.80
2023-03-04T21:18:53.072Z,65.80
2023-03-04T21:21:27.802Z,74.60
2023-03-04T21:24:01.982Z,79.20
2023-03-04T21:27:16.147Z,78.40
2023-03-04T21:30:00.225Z,89.50
2023-03-04T21:32:45.594Z,95.50
2023-03-04T21:35:45.362Z,92.50
2023-03-04T21:39:02.676Z,89.30
2023-03-04T21:42:02.431Z,84.10
2023-03-04T21:44:50.418Z,73.80
2023-03-04T21:48:13.229Z,64.40
2023-03-04T21:51:28.394Z,63.60
2023-03-04T21:55:03.727Z,68.90
2023-03-04T21:58:56.515Z,68.40
2023-03-04T22:02:28.735Z,66.40
2023-03-04T22:05:27.808Z,55.10
2023-03-04T22:08:03.430Z,60.10
2023-03-04T22:10:54.868Z,53.30
2023-03-04T22:14:10.281Z,47.00
2023-03-04T22:17:44.247Z,54.30
2023-03-04T22:20:51.483Z,56.80
2023-03-04T22:23:56.017Z,46.60
2023-03-04T22:26:33.433Z,46.20
2023-03-04T22:29:06.340Z,46.20
2023-03-04T22:31:39.486Z,41.00
2023-03-04T22:34:14.768Z,39.40
2023-03-04T22:36:49.292Z,30.30
2023-03-04T22:39:23.430Z,36.60
2023-03-04T22:41:55.764Z,29.40
2023-03-04T22:44:28.182Z,29.50
2023-03-04T22:46:59.996Z,27.60
2023-03-04T22:49:33.281Z,23.20
2023-03-04T22:52:05.606Z,34.70
2023-03-04T22:54:37.779Z,32.60
2023-03-04T22:57:09.961Z,24.10
2023-03-04T22:59:41.807Z,25.20
2023-03-04T23:02:13.664Z,26.40
2023-03-04T23:04:46.023Z,34.30
2023-03-04T23:07:18.528Z,34.40
2023-03-04T23:09:50.329Z,29.00
2023-03-04T23:12:22.707Z,33.70
2023-03-04T23:14:55.510Z,32.60
2023-03-04T23:17:27.598Z,27.70
2023-03-04T23:19:59.546Z,28.60
2023-03-04T23:22:31.802Z,36.60
2023-03-04T23:25:03.769Z,31.30
2023-03-04T23:27:35.694Z,33.40
2023-03-04T23:30:10.656Z,28.60
2023-03-04T23:32:43.734Z,33.60
2023-03-04T23:35:16.636Z,26.20
2023-03-04T23:37:50.012Z,28.30
2023-03-04T23:40:22.113Z,30.90
2023-03-04T23:42:54.251Z,27.80
2023-03-04T23:45:26.264Z,27.00
2023-03-04T23:47:58.757Z,24.10
2023-03-04T23:50:32.210Z,30.50
2023-03-04T23:53:04.037Z,34.20
2023-03-04T23:55:36.072Z,28.00
2023-03-04T23:58:07.823Z,26.60
